Time;durP1;ratioP1;P1;durP2;ratioP2;P2;SDS_P1;SDS_P2;PMS_P1;PMS_P2;Temp;Humidity;BMP_temperature;BMP_pressure;BME280_temperature;BME280_humidity;BME280_pressure;Samples;Min_cycle;Max_cycle;Signal;HPM_P1;HPM_P2
2022/08/20 00:00:13;;;;;;;15.90;9.70;;;;;;;21.90;86.08;97553.62;105421;1281;22548;-87
2022/08/20 00:03:06;;;;;;;15.80;10.50;;;;;;;21.90;86.13;97553.54;105395;1281;22657;-88
2022/08/20 00:05:40;;;;;;;11.20;8.60;;;;;;;21.91;86.54;97548.45;105493;1281;24337;-89
2022/08/20 00:08:09;;;;;;;13.90;9.70;;;;;;;22.02;86.94;97550.17;105722;1281;25334;-86
2022/08/20 00:10:42;;;;;;;13.60;9.40;;;;;;;22.06;86.17;97552.80;105782;1281;22602;-88
2022/08/20 00:13:17;;;;;;;14.30;9.60;;;;;;;22.02;85.57;97568.20;105133;1283;25379;-88
2022/08/20 00:15:46;;;;;;;14.50;10.60;;;;;;;21.92;85.45;97574.09;105189;1281;24255;-89
2022/08/20 00:18:14;;;;;;;13.00;9.70;;;;;;;21.83;85.89;97581.86;105485;1281;23101;-87
2022/08/20 00:20:45;;;;;;;14.70;9.40;;;;;;;21.84;86.08;97586.48;105533;1281;25433;-89
2022/08/20 00:23:14;;;;;;;15.40;9.30;;;;;;;21.86;86.24;97592.85;105487;1281;25460;-88
2022/08/20 00:25:43;;;;;;;11.90;8.60;;;;;;;21.95;86.59;97595.73;105368;1282;25670;-88
2022/08/20 00:28:12;;;;;;;14.20;10.30;;;;;;;22.07;86.22;97599.58;105435;1281;23848;-87
2022/08/20 00:30:43;;;;;;;11.60;8.90;;;;;;;22.04;85.71;97601.69;105659;1281;22541;-89
2022/08/20 00:33:15;;;;;;;11.70;7.70;;;;;;;22.00;86.12;97597.58;105725;1281;22731;-87
2022/08/20 00:35:48;;;;;;;15.40;9.80;;;;;;;22.06;86.56;97599.50;105873;1281;23220;-90
2022/08/20 00:38:17;;;;;;;11.10;7.90;;;;;;;22.03;85.90;97602.23;105799;1281;25236;-87
2022/08/20 00:40:57;;;;;;;9.50;7.60;;;;;;;22.09;86.17;97603.52;105686;1281;22584;-90
2022/08/20 00:43:31;;;;;;;12.40;9.50;;;;;;;22.19;86.12;97600.39;106849;1283;22856;-87
2022/08/20 00:46:03;;;;;;;13.40;9.50;;;;;;;22.17;85.15;97598.88;107817;1281;24242;-88
2022/08/20 00:48:37;;;;;;;14.30;9.20;;;;;;;21.86;85.70;97589.80;107454;1281;22534;-88
2022/08/20 00:51:13;;;;;;;14.30;9.30;;;;;;;21.60;86.56;97578.30;107244;1281;22902;-86
2022/08/20 00:53:43;;;;;;;11.80;9.70;;;;;;;21.50;86.31;97580.02;106938;1281;22801;-87
2022/08/20 00:56:14;;;;;;;12.30;8.70;;;;;;;21.50;86.41;97583.55;107263;1281;25320;-87
2022/08/20 00:58:44;;;;;;;13.00;9.20;;;;;;;21.52;86.50;97579.02;107307;1281;22543;-87
2022/08/20 01:01:14;;;;;;;11.30;9.30;;;;;;;21.58;86.82;97568.50;106781;1281;22610;-88
2022/08/20 01:03:42;;;;;;;15.60;9.60;;;;;;;21.65;86.53;97565.88;106515;1281;22610;-89
2022/08/20 01:06:10;;;;;;;11.80;8.80;;;;;;;21.67;86.47;97563.73;107776;1281;22635;-89
2022/08/20 01:08:43;;;;;;;12.60;9.30;;;;;;;21.73;86.44;97565.88;107349;1281;22494;-86
2022/08/20 01:11:15;;;;;;;11.80;8.90;;;;;;;21.72;85.83;97562.04;107757;1281;22620;-86
2022/08/20 01:13:45;;;;;;;12.50;9.50;;;;;;;21.77;86.76;97558.15;107639;1281;25233;-87
2022/08/20 01:16:25;;;;;;;18.00;10.40;;;;;;;21.80;85.92;97560.05;106998;1281;22764;-88
2022/08/20 01:18:56;;;;;;;15.00;9.50;;;;;;;21.58;85.15;97559.58;107835;1281;25920;-87
2022/08/20 01:21:32;;;;;;;16.70;10.10;;;;;;;21.47;85.26;97562.63;107474;1281;24309;-87
2022/08/20 01:24:19;;;;;;;18.50;10.70;;;;;;;21.36;85.04;97565.64;108087;1281;22555;-87
2022/08/20 01:26:49;;;;;;;17.00;10.00;;;;;;;21.21;84.96;97568.39;107391;1281;25415;-88
2022/08/20 01:29:22;;;;;;;14.00;8.80;;;;;;;21.13;86.17;97577.45;105591;1281;23229;-88
2022/08/20 01:36:16;;;;;;;9.70;7.70;;;;;;;21.69;87.95;97576.66;105772;1281;25350;-88
2022/08/20 01:38:44;;;;;;;18.10;9.90;;;;;;;21.82;87.42;97569.93;105793;1281;25475;-89
2022/08/20 01:46:08;;;;;;;13.00;8.80;;;;;;;22.09;85.46;97560.88;105807;1281;22733;-89
2022/08/20 01:48:39;;;;;;;10.70;8.10;;;;;;;22.01;85.52;97563.48;105824;1281;24416;-89
2022/08/20 01:51:16;;;;;;;13.90;8.00;;;;;;;22.03;85.78;97562.40;105631;1281;23153;-89
2022/08/20 01:53:48;;;;;;;15.80;8.80;;;;;;;22.10;85.48;97559.14;105464;1281;25980;-91
2022/08/20 01:56:22;;;;;;;9.80;7.40;;;;;;;22.03;84.83;97557.86;105354;1281;22648;-91
2022/08/20 02:03:36;;;;;;;14.90;9.30;;;;;;;21.50;84.77;97547.53;105422;1281;25763;-89
2022/08/20 02:06:10;;;;;;;15.10;9.40;;;;;;;21.31;84.46;97549.92;105384;1281;24391;-88
2022/08/20 02:08:38;;;;;;;14.00;9.40;;;;;;;21.15;85.08;97555.17;105134;1281;23106;-90
2022/08/20 02:11:07;;;;;;;11.20;8.00;;;;;;;21.14;85.35;97555.00;105414;1281;24288;-93
2022/08/20 02:13:35;;;;;;;11.20;7.90;;;;;;;21.24;86.55;97554.79;105361;1281;22556;-90
2022/08/20 02:16:04;;;;;;;11.90;7.20;;;;;;;21.45;86.73;97551.86;105435;1281;24452;-89
2022/08/20 02:18:33;;;;;;;12.70;7.40;;;;;;;21.61;86.31;97546.27;105372;1281;26623;-90
2022/08/20 02:21:02;;;;;;;9.00;7.10;;;;;;;21.75;85.63;97545.30;105294;1281;22703;-88
2022/08/20 02:23:31;;;;;;;14.00;8.80;;;;;;;21.85;85.67;97542.38;105153;1281;25203;-90
2022/08/20 02:25:59;;;;;;;15.30;8.20;;;;;;;21.96;85.13;97542.52;105123;1281;22711;-89
2022/08/20 02:28:26;;;;;;;10.30;7.40;;;;;;;22.01;84.68;97538.41;105335;1281;24223;-90
2022/08/20 02:30:55;;;;;;;10.10;7.60;;;;;;;21.91;83.99;97537.23;105320;1281;22504;-88
2022/08/20 02:33:23;;;;;;;11.70;7.70;;;;;;;21.91;84.61;97537.02;105282;1281;25639;-89
2022/08/20 02:35:54;;;;;;;8.80;7.30;;;;;;;21.92;84.09;97531.92;105288;1281;24259;-88
2022/08/20 02:38:23;;;;;;;10.50;8.00;;;;;;;21.92;84.58;97521.66;105128;1281;24369;-89
2022/08/20 02:40:51;;;;;;;10.90;7.30;;;;;;;21.82;83.50;97518.77;105185;1281;25237;-90
2022/08/20 02:43:20;;;;;;;12.50;7.20;;;;;;;21.79;84.47;97517.66;105337;1281;25244;-90
2022/08/20 02:45:48;;;;;;;13.70;7.80;;;;;;;21.77;83.83;97511.38;105173;1281;22697;-91
2022/08/20 02:48:22;;;;;;;11.90;7.20;;;;;;;21.66;83.39;97509.27;105101;1283;22697;-91
2022/08/20 02:50:56;;;;;;;12.20;7.00;;;;;;;21.55;83.49;97505.58;105316;1281;24256;-91
2022/08/20 02:53:25;;;;;;;;;;;;;;;21.51;84.17;97507.67;105392;1281;22601;-90
2022/08/20 02:55:53;;;;;;;13.00;6.90;;;;;;;21.55;84.83;97507.92;105322;1281;22861;-90
2022/08/20 02:58:23;;;;;;;11.00;6.60;;;;;;;21.63;84.54;97509.23;105141;1281;26670;-90
2022/08/20 03:00:51;;;;;;;12.90;7.50;;;;;;;21.71;84.27;97511.96;105368;1280;22618;-91
2022/08/20 03:03:21;;;;;;;10.40;6.70;;;;;;;21.67;83.19;97506.45;105337;1281;25367;-90
2022/08/20 03:05:53;;;;;;;12.70;6.50;;;;;;;21.54;83.27;97503.79;105299;1281;24390;-88
2022/08/20 03:08:22;;;;;;;10.50;7.30;;;;;;;21.53;83.80;97501.73;105348;1281;22736;-87
2022/08/20 03:10:51;;;;;;;11.10;7.00;;;;;;;21.52;83.08;97499.67;105269;1281;22704;-90
2022/08/20 03:13:20;;;;;;;12.40;7.10;;;;;;;21.44;83.35;97500.80;105175;1284;22615;-87
2022/08/20 03:15:52;;;;;;;10.40;7.20;;;;;;;21.51;84.12;97497.01;105111;1286;22547;-88
2022/08/20 03:18:31;;;;;;;8.80;6.70;;;;;;;21.64;84.24;97492.02;105261;1281;25373;-90
2022/08/20 03:21:00;;;;;;;10.20;7.10;;;;;;;21.77;83.60;97491.09;105178;1281;25646;-90
2022/08/20 03:23:29;;;;;;;14.90;7.80;;;;;;;21.86;83.12;97488.87;105163;1281;23071;-89
2022/08/20 03:25:57;;;;;;;8.60;7.20;;;;;;;21.86;82.58;97494.98;105342;1281;23005;-90
2022/08/20 03:28:26;;;;;;;9.80;6.90;;;;;;;21.71;82.26;97489.33;105327;1281;22903;-87
2022/08/20 03:30:55;;;;;;;9.60;7.00;;;;;;;21.56;82.31;97488.11;105036;1281;24406;-87
2022/08/20 03:33:25;;;;;;;8.80;6.60;;;;;;;21.52;82.64;97489.04;105133;1284;24296;-87
2022/08/20 03:35:53;;;;;;;9.40;6.50;;;;;;;21.52;82.86;97488.40;105333;1281;24224;-88
2022/08/20 03:38:23;;;;;;;11.30;6.50;;;;;;;21.58;83.03;97486.48;105159;1281;24329;-88
2022/08/20 03:41:01;;;;;;;8.20;6.20;;;;;;;21.68;83.02;97492.20;105139;1281;22741;-89
2022/08/20 03:43:30;;;;;;;12.60;7.10;;;;;;;21.66;82.14;97490.39;105191;1284;22718;-88
2022/08/20 03:45:58;;;;;;;9.80;6.60;;;;;;;21.56;81.72;97491.56;105087;1281;22661;-89
2022/08/20 03:48:27;;;;;;;13.50;7.20;;;;;;;21.49;82.22;97489.80;105361;1281;22705;-88
2022/08/20 03:50:57;;;;;;;9.60;6.40;;;;;;;21.55;82.81;97489.38;105086;1284;24257;-88
2022/08/20 03:53:30;;;;;;;13.10;7.60;;;;;;;21.70;82.99;97496.99;105348;1281;24256;-87
2022/08/20 03:56:03;;;;;;;16.50;8.50;;;;;;;21.76;81.78;97504.79;105383;1281;22576;-89
2022/08/20 03:58:33;;;;;;;12.40;7.00;;;;;;;21.59;81.10;97504.73;105368;1281;25357;-89
2022/08/20 04:01:05;;;;;;;9.70;6.40;;;;;;;21.48;81.68;97500.36;105156;1284;23940;-89
2022/08/20 04:03:34;;;;;;;14.20;6.40;;;;;;;21.46;81.62;97499.64;105200;1281;22588;-89
2022/08/20 04:06:03;;;;;;;12.20;6.00;;;;;;;21.44;81.40;97504.88;105183;1283;24422;-89
2022/08/20 04:08:31;;;;;;;9.60;6.70;;;;;;;21.44;81.62;97504.09;105145;1283;22791;-89
2022/08/20 04:10:59;;;;;;;15.60;6.70;;;;;;;21.49;81.97;97507.42;105340;1281;25248;-89
2022/08/20 04:13:29;;;;;;;10.60;7.10;;;;;;;21.59;81.90;97510.15;105272;1281;22566;-89
2022/08/20 04:16:01;;;;;;;10.00;6.30;;;;;;;21.59;81.17;97510.01;105334;1281;24365;-90
2022/08/20 04:18:29;;;;;;;11.50;6.20;;;;;;;21.53;80.90;97504.00;105370;1281;22560;-90
2022/08/20 04:20:57;;;;;;;8.30;6.00;;;;;;;21.52;81.09;97503.92;105116;1283;22887;-89
2022/08/20 04:23:25;;;;;;;8.30;5.40;;;;;;;21.54;81.05;97501.20;105188;1282;22628;-88
2022/08/20 04:25:53;;;;;;;9.50;6.10;;;;;;;21.63;81.70;97503.91;105202;1281;22604;-89
2022/08/20 04:28:27;;;;;;;8.10;6.10;;;;;;;21.70;81.36;97502.40;105163;1281;25619;-89
2022/08/20 04:31:00;;;;;;;11.90;6.50;;;;;;;21.76;80.92;97498.20;105345;1281;26510;-89
2022/08/20 04:33:30;;;;;;;14.20;6.90;;;;;;;21.67;80.49;97491.73;105118;1282;22576;-89
2022/08/20 04:36:04;;;;;;;;;;;;;;;21.64;80.93;97482.46;105352;1281;25218;-90
2022/08/20 04:38:33;;;;;;;13.30;7.40;;;;;;;21.56;80.66;97474.66;105423;1281;22545;-90
2022/08/20 04:41:18;;;;;;;;;;;;;;;21.45;81.12;97465.41;105213;1281;23172;-89
2022/08/20 04:44:18;;;;;;;13.50;8.40;;;;;;;21.26;81.04;97453.34;105419;1281;22609;-89
2022/08/20 04:46:46;;;;;;;12.50;8.70;;;;;;;21.16;81.30;97444.66;105367;1281;23018;-88
2022/08/20 04:49:14;;;;;;;14.40;8.30;;;;;;;21.13;81.59;97446.36;105189;1284;24219;-89
2022/08/20 04:51:42;;;;;;;15.60;8.10;;;;;;;21.09;81.71;97449.61;105385;1281;25433;-89
2022/08/20 04:54:11;;;;;;;10.90;6.60;;;;;;;21.15;82.62;97450.98;105153;1281;22553;-88
2022/08/20 04:56:39;;;;;;;13.10;7.40;;;;;;;21.32;82.59;97456.92;105222;1282;22625;-89
2022/08/20 04:59:33;;;;;;;20.40;9.30;;;;;;;21.48;81.87;97473.89;105307;1281;23297;-89
2022/08/20 05:02:01;;;;;;;16.80;9.30;;;;;;;21.47;81.71;97485.32;105349;1279;22559;-89
2022/08/20 05:08:14;;;;;;;13.50;9.30;;;;;;;21.66;82.90;97481.38;105280;1281;25305;-88
2022/08/20 05:10:47;;;;;;;15.60;9.10;;;;;;;21.81;82.41;97485.79;105308;1281;22551;-89
2022/08/20 05:13:21;;;;;;;14.40;9.60;;;;;;;21.82;82.05;97481.38;105358;1281;24249;-88
2022/08/20 05:15:55;;;;;;;14.60;9.90;;;;;;;21.78;82.31;97483.41;105144;1281;26715;-89
2022/08/20 05:18:25;;;;;;;12.80;8.90;;;;;;;21.77;82.71;97480.81;105255;1283;22817;-88
2022/08/20 05:20:53;;;;;;;14.50;8.00;;;;;;;21.77;82.87;97477.77;105313;1281;25539;-88
2022/08/20 05:23:22;;;;;;;11.10;7.90;;;;;;;21.87;83.47;97467.86;105108;1281;22567;-90
2022/08/20 05:25:50;;;;;;;15.10;9.10;;;;;;;22.07;83.90;97463.27;105320;1281;24124;-88
2022/08/20 05:28:22;;;;;;;17.30;11.00;;;;;;;22.25;83.30;97455.05;105353;1281;25474;-89
2022/08/20 05:30:52;;;;;;;12.30;8.40;;;;;;;22.37;82.91;97452.98;105327;1281;25237;-90
2022/08/20 05:33:21;;;;;;;13.40;9.80;;;;;;;22.45;82.73;97455.20;105224;1282;23291;-89
2022/08/20 05:35:52;;;;;;;16.50;12.00;;;;;;;22.53;83.14;97455.07;105245;1281;24270;-89
2022/08/20 05:38:23;;;;;;;16.50;11.30;;;;;;;22.60;82.81;97454.92;105340;1281;22890;-90
2022/08/20 05:40:52;;;;;;;11.10;9.40;;;;;;;22.63;82.57;97455.41;105417;1281;24259;-88
2022/08/20 05:43:20;;;;;;;19.40;10.50;;;;;;;22.63;82.61;97454.47;105393;1281;22558;-89
2022/08/20 05:45:52;;;;;;;15.00;8.50;;;;;;;22.71;82.85;97455.98;105385;1281;25665;-89
2022/08/20 05:48:24;;;;;;;16.90;8.50;;;;;;;22.80;82.96;97455.67;105185;1281;24234;-89
2022/08/20 05:50:53;;;;;;;15.60;11.00;;;;;;;22.88;82.83;97454.83;105142;1281;25644;-89
2022/08/20 05:53:24;;;;;;;15.30;11.30;;;;;;;22.95;82.53;97459.70;105354;1281;25215;-88
2022/08/20 05:55:52;;;;;;;17.80;10.40;;;;;;;22.99;82.16;97466.79;105391;1281;22574;-90
2022/08/20 05:58:24;;;;;;;12.20;9.20;;;;;;;23.04;82.28;97467.81;105188;1283;24419;-89
2022/08/20 06:00:53;;;;;;;16.70;10.10;;;;;;;23.06;82.02;97477.24;105373;1281;24261;-88
2022/08/20 06:06:27;;;;;;;15.50;11.40;;;;;;;23.05;81.71;97496.39;104655;1282;23969;-87
2022/08/20 06:13:27;;;;;;;18.50;11.20;;;;;;;22.76;81.96;97510.75;105377;1281;24353;-90
2022/08/20 06:15:56;;;;;;;17.40;10.20;;;;;;;22.78;82.20;97509.41;105539;1281;24089;-89
2022/08/20 06:18:25;;;;;;;20.60;10.00;;;;;;;22.81;82.23;97508.33;105417;1281;22569;-88
2022/08/20 06:20:55;;;;;;;15.20;9.30;;;;;;;22.84;82.15;97506.30;105267;1281;26665;-90
2022/08/20 06:23:24;;;;;;;19.30;10.70;;;;;;;22.86;82.24;97512.89;105137;1281;24367;-88
2022/08/20 06:25:52;;;;;;;16.00;10.80;;;;;;;22.85;82.13;97519.80;105450;1281;24292;-90
2022/08/20 06:28:20;;;;;;;15.30;10.60;;;;;;;22.80;81.97;97522.30;105415;1281;24227;-89
2022/08/20 06:30:48;;;;;;;14.80;10.70;;;;;;;22.78;82.34;97524.41;105617;1281;22555;-91
2022/08/20 06:33:16;;;;;;;16.30;10.90;;;;;;;22.79;82.38;97521.51;105872;1281;24099;-90
2022/08/20 06:35:44;;;;;;;14.00;10.70;;;;;;;22.81;82.45;97519.31;105270;1281;22558;-91
2022/08/20 06:42:50;;;;;;;13.00;9.70;;;;;;;22.79;82.15;97515.55;105661;1281;22681;-90
2022/08/20 06:45:25;;;;;;;21.50;10.50;;;;;;;22.77;82.22;97511.77;106050;1281;22565;-93
2022/08/20 06:47:56;;;;;;;16.40;9.90;;;;;;;22.76;82.35;97514.35;105470;1281;22703;-91
2022/08/20 06:50:38;;;;;;;16.10;9.50;;;;;;;22.83;82.63;97508.58;106376;1281;22543;-92
2022/08/20 06:53:19;;;;;;;16.80;10.50;;;;;;;22.95;82.43;97502.73;107349;1281;22608;-92
2022/08/20 06:55:58;;;;;;;14.50;9.80;;;;;;;23.02;82.11;97497.09;107732;1281;22479;-92
2022/08/20 06:58:26;;;;;;;14.80;9.60;;;;;;;23.05;81.98;97493.48;108369;1281;22632;-90
2022/08/20 07:01:06;;;;;;;19.00;10.40;;;;;;;23.11;82.18;97491.38;108657;1281;22698;-92
2022/08/20 07:03:39;;;;;;;20.10;9.80;;;;;;;23.18;81.84;97494.98;107366;1281;22629;-90
2022/08/20 07:06:24;;;;;;;14.60;7.90;;;;;;;23.29;81.95;97499.95;106252;1281;23017;-92
2022/08/20 07:08:54;;;;;;;13.20;8.60;;;;;;;23.42;82.01;97501.43;105562;1281;24224;-91
2022/08/20 07:11:23;;;;;;;20.20;8.90;;;;;;;23.51;81.63;97500.55;105571;1281;24228;-91
2022/08/20 07:13:57;;;;;;;13.40;9.10;;;;;;;23.63;81.63;97501.25;105810;1281;25303;-91
2022/08/20 07:16:26;;;;;;;14.10;9.70;;;;;;;23.70;81.19;97501.42;105554;1281;25088;-88
2022/08/20 07:18:54;;;;;;;16.80;10.00;;;;;;;23.74;80.75;97497.27;105631;1281;25374;-91
2022/08/20 07:21:22;;;;;;;16.30;8.40;;;;;;;23.79;80.69;97494.27;105247;1282;25235;-90
2022/08/20 07:23:51;;;;;;;13.20;8.20;;;;;;;23.90;80.61;97494.87;105496;1281;24368;-91
2022/08/20 07:26:20;;;;;;;14.60;7.80;;;;;;;24.06;80.28;97495.14;106567;1281;24230;-93
2022/08/20 07:28:48;;;;;;;16.40;7.90;;;;;;;24.21;80.03;97486.13;106600;1281;24450;-90
2022/08/20 07:34:10;;;;;;;14.10;8.00;;;;;;;24.47;79.31;97486.45;106211;1282;24226;-91
2022/08/20 07:36:39;;;;;;;15.00;7.60;;;;;;;24.54;78.34;97484.05;107763;1281;22634;-92
2022/08/20 07:42:56;;;;;;;14.60;7.40;;;;;;;24.88;77.97;97480.70;107576;1281;23174;-90
2022/08/20 07:45:24;;;;;;;12.70;7.50;;;;;;;25.06;77.68;97480.19;108341;1281;22703;-91
2022/08/20 07:47:52;;;;;;;13.90;7.70;;;;;;;25.13;76.86;97475.81;107748;1281;23946;-92
2022/08/20 07:50:25;;;;;;;15.80;7.30;;;;;;;25.10;75.99;97469.52;107870;1281;24279;-92
2022/08/20 07:52:53;;;;;;;14.90;7.80;;;;;;;25.10;76.12;97474.71;106284;1281;24180;-92
2022/08/20 07:55:22;;;;;;;12.10;7.80;;;;;;;25.18;76.19;97472.63;107111;1281;23227;-91
2022/08/20 07:57:50;;;;;;;11.80;7.70;;;;;;;25.22;75.60;97477.41;107434;1281;22618;-93
2022/08/20 08:00:21;;;;;;;11.50;7.60;;;;;;;25.27;75.86;97477.38;107512;1281;22707;-90
2022/08/20 08:02:50;;;;;;;11.80;7.90;;;;;;;25.35;75.49;97477.54;106950;1281;22661;-92
2022/08/20 08:05:18;;;;;;;12.50;7.90;;;;;;;25.41;75.19;97477.65;107724;1281;22575;-94
2022/08/20 08:07:46;;;;;;;13.60;8.00;;;;;;;25.45;74.68;97482.20;107947;1281;23186;-93
2022/08/20 08:10:19;;;;;;;14.90;8.30;;;;;;;25.47;74.73;97482.88;108417;1281;22956;-94
2022/08/20 08:12:56;;;;;;;13.70;7.30;;;;;;;25.47;74.25;97484.30;109175;1270;22769;31
2022/08/20 08:15:39;;;;;;;12.00;7.90;;;;;;;25.45;74.22;97491.73;109172;1269;22502;31
2022/08/20 08:20:59;;;;;;;13.10;7.70;;;;;;;25.48;74.13;97499.66;108337;1268;23952;-89
2022/08/20 08:23:28;;;;;;;12.40;7.80;;;;;;;25.46;72.91;97500.70;107023;1279;22737;-90
2022/08/20 08:25:59;;;;;;;17.40;8.60;;;;;;;25.28;72.33;97498.33;107372;1280;22779;-91
2022/08/20 08:28:28;;;;;;;14.80;8.20;;;;;;;25.19;72.91;97499.88;107819;1279;23196;-90
2022/08/20 08:30:57;;;;;;;13.50;8.30;;;;;;;25.25;72.86;97495.27;107326;1279;22761;-90
2022/08/20 08:33:29;;;;;;;16.00;8.20;;;;;;;25.42;73.07;97497.17;106569;1279;23339;-91
2022/08/20 08:36:08;;;;;;;14.70;7.80;;;;;;;25.63;72.87;97498.27;107451;1279;22617;-91
2022/08/20 08:38:40;;;;;;;12.20;7.70;;;;;;;25.85;72.81;97501.06;106221;1280;22694;-90
2022/08/20 08:41:15;;;;;;;14.10;8.00;;;;;;;26.14;72.41;97507.23;105575;1279;22598;-83
2022/08/20 08:43:46;;;;;;;14.10;7.80;;;;;;;26.24;70.77;97509.17;105672;1279;25391;-84
2022/08/20 08:46:21;;;;;;;16.90;7.80;;;;;;;26.16;70.00;97514.23;105746;1279;23396;-83
2022/08/20 08:48:53;;;;;;;15.50;8.30;;;;;;;26.00;69.01;97515.11;105779;1279;22628;-84
2022/08/20 08:51:41;;;;;;;12.30;7.90;;;;;;;25.75;68.54;97519.13;105612;1280;24015;-85
2022/08/20 08:54:15;;;;;;;15.90;7.80;;;;;;;25.49;68.57;97518.48;105859;1279;22687;-87
2022/08/20 08:56:44;;;;;;;13.70;8.10;;;;;;;25.25;68.76;97519.39;105567;1279;22567;-85
2022/08/20 08:59:19;;;;;;;15.70;8.80;;;;;;;25.10;69.34;97520.09;105952;1279;22645;-84
2022/08/20 09:01:56;;;;;;;14.10;8.30;;;;;;;25.01;69.76;97515.81;105937;1279;24211;-83
2022/08/20 09:04:33;;;;;;;14.40;8.60;;;;;;;24.95;70.36;97514.92;105878;1279;23474;-85
2022/08/20 09:07:06;;;;;;;14.60;8.80;;;;;;;24.95;70.02;97511.30;105373;1280;22702;-84
2022/08/20 09:09:37;;;;;;;19.20;7.90;;;;;;;24.84;70.07;97507.02;105607;1279;25367;-86
2022/08/20 09:12:10;;;;;;;14.60;8.70;;;;;;;24.76;70.11;97505.27;105691;1279;24247;-87
2022/08/20 09:14:38;;;;;;;14.30;7.90;;;;;;;24.72;70.32;97498.98;106209;1279;22830;-86
2022/08/20 09:17:07;;;;;;;11.40;7.70;;;;;;;24.83;70.84;97493.34;105587;1280;22583;-86
2022/08/20 09:19:35;;;;;;;20.70;9.00;;;;;;;25.07;71.01;97490.51;105620;1280;25552;-86
2022/08/20 09:22:08;;;;;;;13.40;7.80;;;;;;;25.18;70.59;97490.52;105513;1280;22875;-87
2022/08/20 09:24:37;;;;;;;14.40;7.80;;;;;;;25.21;70.49;97486.95;105688;1280;22562;-87
2022/08/20 09:27:05;;;;;;;14.60;8.10;;;;;;;25.27;70.14;97477.38;105378;1280;23318;-86
2022/08/20 09:29:33;;;;;;;12.00;7.40;;;;;;;25.47;70.23;97472.33;105794;1280;24283;-89
2022/08/20 09:32:10;;;;;;;12.70;8.20;;;;;;;25.63;68.78;97470.20;105740;1280;22573;-88
2022/08/20 09:34:43;;;;;;;16.30;8.70;;;;;;;25.69;68.94;97467.77;105642;1280;24383;-88
2022/08/20 09:37:12;;;;;;;12.10;8.20;;;;;;;25.81;68.17;97466.64;105638;1280;25360;-85
2022/08/20 09:39:41;;;;;;;15.30;8.80;;;;;;;25.87;68.55;97467.21;105807;1280;22785;-89
2022/08/20 09:42:21;;;;;;;14.20;8.00;;;;;;;26.00;68.03;97464.72;105569;1280;24332;-87
2022/08/20 09:44:50;;;;;;;16.50;10.30;;;;;;;26.19;67.40;97463.31;105725;1280;22725;-86
2022/08/20 09:47:18;;;;;;;16.40;10.00;;;;;;;26.45;67.34;97459.05;105687;1280;24422;-87
2022/08/20 09:50:41;;;;;;;15.00;8.60;;;;;;;26.72;66.59;97455.61;105696;1280;22547;-85
2022/08/20 09:53:10;;;;;;;14.40;8.70;;;;;;;27.07;64.11;97454.06;104613;1280;1522225;-87
2022/08/20 09:55:41;;;;;;;14.20;8.40;;;;;;;27.01;64.05;97456.92;105615;1280;22564;-86
2022/08/20 09:58:34;;;;;;;11.60;8.20;;;;;;;26.89;64.66;97459.23;105561;1280;25239;-86
2022/08/20 10:01:09;;;;;;;15.10;8.50;;;;;;;26.85;64.79;97458.12;105745;1280;25518;-86
2022/08/20 10:03:42;;;;;;;13.80;8.20;;;;;;;26.83;65.35;97461.23;105603;1280;22664;-86
2022/08/20 10:06:13;;;;;;;13.90;8.70;;;;;;;26.90;65.72;97459.86;105709;1280;22549;-86
2022/08/20 10:08:42;;;;;;;15.00;8.40;;;;;;;26.95;65.82;97463.41;105623;1280;24428;-87
2022/08/20 10:11:14;;;;;;;14.70;8.00;;;;;;;26.96;64.95;97466.96;105493;1280;23113;-88
2022/08/20 10:13:44;;;;;;;17.20;8.90;;;;;;;26.91;64.49;97466.95;105616;1280;25292;-85
2022/08/20 10:16:12;;;;;;;13.60;8.30;;;;;;;26.95;63.85;97468.23;105566;1280;22544;-86
2022/08/20 10:18:40;;;;;;;13.30;8.90;;;;;;;27.05;63.49;97467.21;105517;1280;25469;-86
2022/08/20 10:21:10;;;;;;;13.40;8.70;;;;;;;27.18;63.91;97462.59;105456;1280;25333;-86
2022/08/20 10:23:38;;;;;;;14.80;8.90;;;;;;;27.39;63.02;97454.59;105822;1280;25376;-87
2022/08/20 10:26:08;;;;;;;15.40;8.80;;;;;;;27.53;62.56;97447.48;105401;1280;22804;-86
2022/08/20 10:28:36;;;;;;;16.20;9.40;;;;;;;27.76;62.54;97441.75;105469;1280;22859;-86
2022/08/20 10:31:09;;;;;;;14.30;8.80;;;;;;;28.14;63.03;97441.36;105408;1280;25287;-86
2022/08/20 10:33:39;;;;;;;13.90;8.70;;;;;;;28.51;62.44;97432.36;105682;1280;24420;-86
2022/08/20 10:36:14;;;;;;;13.80;8.20;;;;;;;28.76;61.59;97430.88;105692;1280;22555;-86
2022/08/20 10:38:43;;;;;;;14.30;8.60;;;;;;;28.94;59.17;97431.31;105501;1280;24239;-85
2022/08/20 10:41:15;;;;;;;17.10;8.40;;;;;;;29.07;59.46;97429.60;105753;1280;24216;-86
2022/08/20 10:43:43;;;;;;;14.40;9.00;;;;;;;29.23;58.82;97435.87;105765;1280;22666;-85
2022/08/20 10:46:11;;;;;;;14.90;8.40;;;;;;;29.33;58.63;97436.42;105483;1280;24064;-86
2022/08/20 10:48:39;;;;;;;13.60;9.40;;;;;;;29.33;58.78;97437.75;105442;1280;25311;-87
2022/08/20 10:51:07;;;;;;;17.60;9.00;;;;;;;29.41;59.29;97436.28;105732;1280;23869;-86
2022/08/20 10:53:38;;;;;;;17.00;9.20;;;;;;;29.59;58.49;97438.52;105668;1280;22552;-85
2022/08/20 10:56:06;;;;;;;15.80;9.00;;;;;;;29.64;58.51;97436.03;105839;1280;25644;-85
2022/08/20 10:58:34;;;;;;;18.40;9.30;;;;;;;29.65;58.43;97434.66;105585;1280;22665;-85
2022/08/20 11:01:09;;;;;;;14.90;9.70;;;;;;;29.62;58.36;97440.27;105412;1280;23182;-85
2022/08/20 11:03:38;;;;;;;19.60;9.50;;;;;;;29.61;57.80;97434.44;105552;1280;22631;-85
2022/08/20 11:06:06;;;;;;;18.30;8.80;;;;;;;29.50;57.72;97436.78;105753;1280;25347;-84
2022/08/20 11:08:34;;;;;;;17.00;9.10;;;;;;;29.51;57.33;97429.94;105629;1279;22562;-86
2022/08/20 11:11:04;;;;;;;13.90;8.20;;;;;;;29.55;57.58;97430.54;105686;1280;24278;-86
2022/08/20 11:13:33;;;;;;;19.00;8.40;;;;;;;29.61;57.24;97425.53;105775;1280;25415;-86
2022/08/20 11:16:02;;;;;;;12.70;8.40;;;;;;;29.71;56.69;97421.10;105719;1280;23748;-85
2022/08/20 11:18:31;;;;;;;13.40;8.50;;;;;;;29.68;56.15;97420.54;105651;1280;25308;-85
2022/08/20 11:21:00;;;;;;;20.30;11.60;;;;;;;29.60;56.41;97421.13;105770;1280;25239;-85
2022/08/20 11:23:28;;;;;;;20.70;11.20;;;;;;;29.25;57.43;97418.05;105582;1280;25438;-85
2022/08/20 11:25:57;;;;;;;22.80;12.10;;;;;;;28.78;58.89;97414.58;105501;1280;22577;-85
2022/08/20 11:28:29;;;;;;;25.20;13.30;;;;;;;28.21;60.43;97422.70;105668;1280;26616;-88
2022/08/20 11:31:00;;;;;;;22.50;12.10;;;;;;;27.65;62.09;97424.41;105795;1280;25337;-85
2022/08/20 11:33:28;;;;;;;22.90;13.10;;;;;;;27.18;63.08;97425.37;105447;1280;25285;-85
2022/08/20 11:35:56;;;;;;;27.80;13.60;;;;;;;26.90;64.09;97424.39;105796;1279;22607;-85
2022/08/20 11:38:25;;;;;;;20.30;11.20;;;;;;;26.70;65.05;97421.05;105705;1280;25235;-85
2022/08/20 11:40:53;;;;;;;24.40;12.80;;;;;;;26.63;66.72;97414.63;105457;1280;22573;-86
2022/08/20 11:43:21;;;;;;;21.90;13.30;;;;;;;26.47;67.24;97412.84;105748;1280;22872;-86
2022/08/20 11:45:53;;;;;;;21.70;12.30;;;;;;;26.37;67.31;97415.36;105749;1280;24299;-85
2022/08/20 11:48:21;;;;;;;23.00;13.30;;;;;;;26.19;67.89;97416.44;105807;1280;22586;-86
2022/08/20 11:50:49;;;;;;;21.30;12.60;;;;;;;25.94;68.64;97416.84;105727;1280;24419;-87
2022/08/20 11:53:17;;;;;;;27.40;12.90;;;;;;;25.74;68.59;97416.88;105803;1280;22807;-86
2022/08/20 11:55:46;;;;;;;22.40;12.80;;;;;;;25.71;69.06;97416.35;105720;1280;22700;-86
2022/08/20 11:58:14;;;;;;;28.20;15.80;;;;;;;25.67;68.80;97414.59;105724;1280;23013;-85
2022/08/20 12:00:43;;;;;;;25.20;13.50;;;;;;;25.62;68.23;97419.23;105720;1280;24333;-86
2022/08/20 12:03:11;;;;;;;23.60;13.50;;;;;;;25.39;67.70;97427.15;105747;1279;24336;-86
2022/08/20 12:05:43;;;;;;;24.30;14.20;;;;;;;25.16;67.57;97431.92;105432;1280;25242;-85
2022/08/20 12:08:13;;;;;;;31.10;15.30;;;;;;;24.96;67.45;97426.32;105460;1280;22550;-89
2022/08/20 12:10:57;;;;;;;24.90;12.90;;;;;;;24.84;67.48;97415.70;105578;1280;24389;-87
2022/08/20 12:13:32;;;;;;;17.90;11.80;;;;;;;24.71;67.96;97405.88;105904;1280;24789;-86